Time;durP1;ratioP1;P1;durP2;ratioP2;P2;SDS_P1;SDS_P2;PMS_P1;PMS_P2;Temp;Humidity;BMP_temperature;BMP_pressure;BME280_temperature;BME280_humidity;BME280_pressure;Samples;Min_cycle;Max_cycle;Signal;HPM_P1;HPM_P2
2021/07/10 00:01:20;;;;;;;10.13;3.60;;;16.90;99.90;;;;;;5054044;28;20204;-77
2021/07/10 00:03:45;;;;;;;13.17;4.53;;;16.80;99.90;;;;;;5053534;28;20200;-77
2021/07/10 00:06:14;;;;;;;7.53;4.80;;;16.50;99.90;;;;;;5054419;28;20220;-78
2021/07/10 00:08:39;;;;;;;12.20;4.13;;;17.20;99.90;;;;;;5061989;28;20174;-78
2021/07/10 00:11:07;;;;;;;9.43;4.87;;;16.90;99.90;;;;;;5063098;28;20216;-79
2021/07/10 00:13:33;;;;;;;12.17;5.13;;;16.60;99.90;;;;;;5055023;28;20208;-77
2021/07/10 00:15:58;;;;;;;13.13;4.00;;;16.90;99.90;;;;;;5056007;28;20623;-77
2021/07/10 00:18:24;;;;;;;9.80;4.43;;;17.10;99.90;;;;;;5055298;28;20174;-77
2021/07/10 00:20:49;;;;;;;11.37;6.17;;;17.10;99.90;;;;;;5059957;28;20594;-78
2021/07/10 00:23:16;;;;;;;9.30;4.83;;;16.70;99.90;;;;;;5059666;28;20243;-77
2021/07/10 00:25:41;;;;;;;9.70;5.00;;;17.10;99.90;;;;;;5059611;28;20206;-76
2021/07/10 00:28:07;;;;;;;8.53;3.90;;;17.10;99.90;;;;;;5061616;28;20533;-77
2021/07/10 00:30:34;;;;;;;7.63;3.90;;;16.60;99.90;;;;;;5058805;28;20180;-77
2021/07/10 00:33:02;;;;;;;6.77;4.20;;;16.60;99.90;;;;;;5058049;28;20174;-77
2021/07/10 00:35:28;;;;;;;7.60;4.00;;;17.10;99.90;;;;;;5094979;22;20231;-74
2021/07/10 00:37:53;;;;;;;8.47;3.37;;;17.10;99.90;;;;;;5072528;28;20161;-73
2021/07/10 00:40:19;;;;;;;6.23;3.47;;;17.10;99.90;;;;;;5072731;28;20174;-74
2021/07/10 00:42:45;;;;;;;4.57;3.37;;;17.20;99.90;;;;;;5072048;28;20575;-75
2021/07/10 00:45:12;;;;;;;8.10;3.37;;;16.50;99.90;;;;;;5072645;28;20250;-74
2021/07/10 00:47:38;;;;;;;12.07;4.00;;;17.00;99.90;;;;;;5072008;28;20629;-74
2021/07/10 00:50:20;;;;;;;7.73;3.67;;;17.00;99.90;;;;;;5072400;28;20295;-74
2021/07/10 00:52:46;;;;;;;6.83;3.90;;;17.20;99.90;;;;;;5071941;28;20565;-73
2021/07/10 00:55:13;;;;;;;7.40;3.53;;;16.90;99.90;;;;;;5071887;28;20210;-73
2021/07/10 00:57:40;;;;;;;6.30;3.97;;;17.30;99.90;;;;;;5071677;28;20173;-73
2021/07/10 01:00:09;;;;;;;5.93;3.43;;;16.90;99.90;;;;;;5071856;28;20629;-73
2021/07/10 01:02:35;;;;;;;8.97;3.90;;;17.20;99.90;;;;;;5071062;28;20581;-73
2021/07/10 01:05:05;;;;;;;7.33;3.77;;;16.70;99.90;;;;;;5071840;28;20185;-74
2021/07/10 01:07:31;;;;;;;8.70;4.30;;;17.20;99.90;;;;;;5072483;28;20200;-73
2021/07/10 01:09:56;;;;;;;8.43;4.10;;;17.30;99.90;;;;;;5071457;28;20258;-72
2021/07/10 01:12:22;;;;;;;8.87;3.60;;;17.30;99.90;;;;;;5071115;28;20169;-74
2021/07/10 01:14:48;;;;;;;11.17;4.40;;;16.70;99.90;;;;;;5071399;28;20264;-74
2021/07/10 01:17:13;;;;;;;9.73;4.23;;;17.10;99.90;;;;;;5071625;28;20309;-73
2021/07/10 01:19:39;;;;;;;8.70;3.87;;;17.10;99.90;;;;;;5053498;28;20216;-73
2021/07/10 01:22:08;;;;;;;10.17;3.67;;;17.20;99.90;;;;;;5070877;28;20205;-73
2021/07/10 01:24:34;;;;;;;12.63;3.93;;;17.20;99.90;;;;;;5071844;28;20535;-72
2021/07/10 01:27:00;;;;;;;7.63;3.93;;;17.10;99.90;;;;;;5072035;28;20185;-74
2021/07/10 01:29:26;;;;;;;7.50;3.50;;;17.10;99.90;;;;;;5071827;28;20636;-73
2021/07/10 01:31:53;;;;;;;9.93;3.33;;;17.10;99.90;;;;;;5070983;28;20202;-73
2021/07/10 01:48:16;;;;;;;6.87;2.80;;;16.70;99.90;;;;;;5071268;28;20207;-74
2021/07/10 01:50:42;;;;;;;4.50;2.23;;;16.50;99.90;;;;;;5065645;28;20219;-73
2021/07/10 01:53:10;;;;;;;4.97;2.60;;;16.50;99.90;;;;;;5071235;28;20169;-73
2021/07/10 01:55:36;;;;;;;6.10;2.70;;;16.70;99.90;;;;;;5070951;28;20642;-73
2021/07/10 01:58:02;;;;;;;7.27;2.83;;;17.00;99.90;;;;;;5052865;28;20209;-74
2021/07/10 02:00:35;;;;;;;5.47;2.80;;;16.40;99.90;;;;;;5070235;28;20177;-72
2021/07/10 02:03:01;;;;;;;8.00;3.40;;;16.50;99.90;;;;;;5070724;28;20177;-74
2021/07/10 02:05:28;;;;;;;4.60;2.17;;;16.40;99.90;;;;;;5070874;28;20673;-73
2021/07/10 02:07:57;;;;;;;13.47;3.40;;;16.40;99.90;;;;;;5070810;28;20169;-73
2021/07/10 02:10:24;;;;;;;6.23;3.20;;;16.40;99.90;;;;;;5070860;28;20184;-73
2021/07/10 02:12:51;;;;;;;7.53;3.67;;;16.40;99.90;;;;;;5072432;28;20189;-73
2021/07/10 02:15:18;;;;;;;11.40;3.57;;;16.80;99.90;;;;;;5074543;28;20322;-73
2021/07/10 02:17:47;;;;;;;10.70;3.97;;;16.70;99.90;;;;;;5072253;28;20170;-73
2021/07/10 02:20:20;;;;;;;12.43;3.70;;;16.40;99.90;;;;;;5070967;28;20558;-73
2021/07/10 02:22:46;;;;;;;6.57;3.20;;;16.50;99.90;;;;;;5070487;28;20246;-73
2021/07/10 02:25:14;;;;;;;8.17;3.23;;;16.90;99.90;;;;;;5070623;28;20201;-73
2021/07/10 02:27:40;;;;;;;6.93;2.90;;;16.40;99.90;;;;;;5070841;28;20195;-73
2021/07/10 02:30:09;;;;;;;10.03;3.13;;;16.80;99.90;;;;;;5070592;28;20214;-72
2021/07/10 02:32:34;;;;;;;6.77;3.47;;;16.40;99.90;;;;;;5069978;28;20576;-73
2021/07/10 02:35:00;;;;;;;6.93;3.17;;;16.70;99.90;;;;;;5070221;28;20212;-73
2021/07/10 02:37:26;;;;;;;5.80;2.80;;;16.60;99.90;;;;;;5070516;28;20257;-73
2021/07/10 02:39:52;;;;;;;6.83;3.37;;;16.50;99.90;;;;;;5070880;28;20177;-73
2021/07/10 02:42:18;;;;;;;5.77;2.90;;;16.70;99.90;;;;;;5051905;28;20208;-73
2021/07/10 02:44:43;;;;;;;9.00;3.53;;;16.50;99.90;;;;;;5074216;28;20190;-73
2021/07/10 02:47:09;;;;;;;5.23;3.03;;;16.80;99.90;;;;;;5074742;28;20166;-73
2021/07/10 02:49:34;;;;;;;6.13;3.40;;;16.40;99.90;;;;;;5056244;28;20178;-73
2021/07/10 02:52:00;;;;;;;5.70;3.60;;;16.20;99.90;;;;;;5073584;28;20629;-73
2021/07/10 02:54:25;;;;;;;5.70;3.03;;;16.60;99.90;;;;;;5073875;28;20223;-73
2021/07/10 02:56:51;;;;;;;5.57;3.13;;;16.40;99.90;;;;;;5074537;28;20238;-73
2021/07/10 02:59:16;;;;;;;6.10;3.40;;;16.70;99.90;;;;;;5074004;28;20173;-73
2021/07/10 03:01:42;;;;;;;4.63;2.70;;;16.50;99.90;;;;;;5073249;28;20258;-74
2021/07/10 03:04:07;;;;;;;5.17;2.90;;;16.70;99.90;;;;;;5073858;28;20193;-74
2021/07/10 03:06:33;;;;;;;3.63;2.80;;;16.40;99.90;;;;;;5073746;28;20169;-75
2021/07/10 03:08:58;;;;;;;4.07;2.10;;;16.20;99.90;;;;;;5074029;28;20181;-72
2021/07/10 03:11:24;;;;;;;7.47;3.23;;;16.10;99.90;;;;;;5055329;28;20530;-76
2021/07/10 03:13:49;;;;;;;5.17;3.03;;;16.10;99.90;;;;;;5055762;28;20207;-74
2021/07/10 03:16:15;;;;;;;6.67;2.77;;;16.60;99.90;;;;;;5073945;28;20177;-75
2021/07/10 03:18:40;;;;;;;3.20;2.90;;;16.10;99.90;;;;;;5056242;28;20196;-73
2021/07/10 03:21:06;;;;;;;4.03;2.80;;;16.20;99.90;;;;;;5073818;28;20237;-74
2021/07/10 03:23:31;;;;;;;7.03;2.63;;;16.10;99.90;;;;;;5074054;28;20173;-74
2021/07/10 03:25:57;;;;;;;6.97;3.03;;;16.10;99.90;;;;;;5074222;28;20550;-74
2021/07/10 03:28:23;;;;;;;3.13;2.33;;;16.20;99.90;;;;;;5073448;28;20180;-75
2021/07/10 03:30:52;;;;;;;5.90;2.80;;;16.20;99.90;;;;;;5072960;28;20260;-74
2021/07/10 03:33:19;;;;;;;6.20;3.10;;;16.40;99.90;;;;;;5073699;28;20313;-75
2021/07/10 03:35:45;;;;;;;6.17;2.80;;;16.40;99.90;;;;;;5073543;28;20201;-74
2021/07/10 03:38:13;;;;;;;8.30;3.43;;;16.70;99.90;;;;;;5073292;28;20590;-73
2021/07/10 03:40:39;;;;;;;6.37;3.47;;;16.20;99.90;;;;;;5072542;28;20255;-74
2021/07/10 03:43:04;;;;;;;8.60;2.77;;;16.50;99.90;;;;;;5073164;28;20310;-74
2021/07/10 03:45:30;;;;;;;6.97;4.10;;;16.60;99.90;;;;;;5073158;28;20181;-74
2021/07/10 03:47:55;;;;;;;6.90;4.00;;;16.40;99.90;;;;;;5073239;28;20173;-75
2021/07/10 03:50:21;;;;;;;6.27;3.93;;;16.60;99.90;;;;;;5067097;28;20609;-73
2021/07/10 03:52:47;;;;;;;9.53;4.80;;;16.30;99.90;;;;;;5073233;28;20178;-74
2021/07/10 03:55:13;;;;;;;5.30;3.50;;;16.50;99.90;;;;;;5071400;28;20208;-74
2021/07/10 03:57:40;;;;;;;9.97;5.00;;;16.40;99.90;;;;;;5072864;28;20634;-74
2021/07/10 04:00:10;;;;;;;11.27;4.77;;;16.50;99.90;;;;;;5072750;28;20172;-73
2021/07/10 04:02:36;;;;;;;7.57;4.40;;;16.50;99.90;;;;;;5071862;28;20208;-73
2021/07/10 04:05:01;;;;;;;7.13;5.13;;;16.00;99.90;;;;;;5072681;28;20657;-73
2021/07/10 04:07:27;;;;;;;8.30;4.77;;;16.40;99.90;;;;;;5072798;28;20230;-73
2021/07/10 04:09:52;;;;;;;9.00;5.27;;;16.00;99.90;;;;;;5079293;28;20169;-73
2021/07/10 04:12:18;;;;;;;9.57;5.10;;;16.00;99.90;;;;;;5075992;28;20177;-73
2021/07/10 04:14:43;;;;;;;7.17;5.40;;;16.30;99.90;;;;;;5072830;28;20224;-73
2021/07/10 04:17:09;;;;;;;7.50;5.17;;;16.00;99.90;;;;;;5072497;28;20165;-72
2021/07/10 04:19:35;;;;;;;6.33;3.93;;;16.20;99.90;;;;;;5072558;28;20199;-73
2021/07/10 04:22:00;;;;;;;9.90;4.73;;;16.40;99.90;;;;;;5071780;28;20225;-73
2021/07/10 04:24:26;;;;;;;8.63;4.83;;;16.50;99.90;;;;;;5072422;28;20193;-73
2021/07/10 04:26:51;;;;;;;7.30;4.57;;;16.10;99.90;;;;;;5072371;28;20165;-73
2021/07/10 04:29:17;;;;;;;7.37;5.03;;;16.40;99.90;;;;;;5072679;28;20165;-73
2021/07/10 04:31:42;;;;;;;5.47;4.70;;;16.30;99.90;;;;;;5071601;28;20181;-73
2021/07/10 04:34:08;;;;;;;6.23;4.97;;;16.10;99.90;;;;;;5072937;28;20293;-73
2021/07/10 04:36:34;;;;;;;7.27;5.23;;;16.30;99.90;;;;;;5072640;28;20176;-73
2021/07/10 04:38:59;;;;;;;7.47;5.07;;;16.30;99.90;;;;;;5072576;28;20165;-73
2021/07/10 04:41:25;;;;;;;6.90;5.20;;;16.00;99.90;;;;;;5071895;28;20196;-73
2021/07/10 04:43:50;;;;;;;5.80;4.30;;;16.30;99.90;;;;;;5072097;28;20204;-73
2021/07/10 04:46:16;;;;;;;7.80;4.57;;;16.20;99.90;;;;;;5072288;28;20537;-72
2021/07/10 04:48:41;;;;;;;6.77;5.07;;;16.10;99.90;;;;;;5072046;28;20179;-72
2021/07/10 04:51:07;;;;;;;8.23;4.97;;;16.40;99.90;;;;;;5071626;28;20433;-72
2021/07/10 04:53:32;;;;;;;9.20;4.93;;;16.40;99.90;;;;;;5071512;28;20543;-72
2021/07/10 04:55:58;;;;;;;7.80;5.33;;;16.40;99.90;;;;;;5072437;28;20177;-72
2021/07/10 04:58:23;;;;;;;9.37;5.13;;;16.10;99.90;;;;;;5071714;28;20161;-72
2021/07/10 05:00:49;;;;;;;9.07;5.30;;;16.00;99.90;;;;;;5071113;28;20218;-72
2021/07/10 05:03:15;;;;;;;7.77;5.07;;;16.10;99.90;;;;;;5071786;28;20219;-71
2021/07/10 05:05:40;;;;;;;9.17;5.33;;;16.40;99.90;;;;;;5071129;28;20246;-71
2021/07/10 05:08:07;;;;;;;8.40;4.60;;;16.50;99.90;;;;;;5071428;28;20256;-72
2021/07/10 05:10:33;;;;;;;5.57;4.30;;;16.30;99.90;;;;;;5070839;28;20169;-72
2021/07/10 05:12:59;;;;;;;6.53;4.60;;;16.30;99.90;;;;;;5071361;28;20169;-72
2021/07/10 05:15:24;;;;;;;7.27;4.67;;;16.10;99.90;;;;;;5071377;28;20669;-72
2021/07/10 05:17:50;;;;;;;7.33;4.30;;;16.10;99.90;;;;;;5072638;28;20528;-73
2021/07/10 05:20:16;;;;;;;8.30;4.80;;;16.60;99.90;;;;;;5071644;28;20227;-73
2021/07/10 05:22:41;;;;;;;5.87;4.37;;;16.10;99.90;;;;;;5070887;28;20200;-73
2021/07/10 05:25:08;;;;;;;6.37;4.17;;;16.20;99.90;;;;;;5071549;28;20185;-73
2021/07/10 05:27:34;;;;;;;7.77;4.13;;;16.60;99.90;;;;;;5071594;28;20199;-73
2021/07/10 05:29:59;;;;;;;7.07;4.13;;;16.50;99.90;;;;;;5071641;28;20685;-72
2021/07/10 05:32:25;;;;;;;5.37;4.13;;;16.50;99.90;;;;;;5070580;28;20223;-73
2021/07/10 05:34:50;;;;;;;4.60;3.53;;;16.50;99.90;;;;;;5071213;28;20433;-73
2021/07/10 05:37:16;;;;;;;5.53;3.47;;;16.20;99.90;;;;;;5071592;28;20197;-73
2021/07/10 05:39:42;;;;;;;5.57;3.80;;;16.50;99.90;;;;;;5071344;28;20177;-72
2021/07/10 05:42:09;;;;;;;4.70;3.37;;;16.60;99.90;;;;;;5070993;28;20627;-72
2021/07/10 05:44:35;;;;;;;4.10;3.80;;;16.20;99.90;;;;;;5071605;28;20284;-72
2021/07/10 05:47:00;;;;;;;7.20;4.30;;;16.50;99.90;;;;;;5071245;28;20192;-72
2021/07/10 05:49:26;;;;;;;7.13;4.10;;;16.00;99.90;;;;;;5071420;28;20534;-73
2021/07/10 05:51:51;;;;;;;6.87;3.97;;;16.20;99.90;;;;;;5069882;28;20184;-73
2021/07/10 05:54:17;;;;;;;9.07;5.20;;;16.20;99.90;;;;;;5070878;28;20200;-73
2021/07/10 05:56:43;;;;;;;7.47;3.97;;;16.60;99.90;;;;;;5070864;28;20264;-73
2021/07/10 05:59:09;;;;;;;5.90;3.83;;;16.60;99.90;;;;;;5070771;28;20196;-73
2021/07/10 06:01:35;;;;;;;7.23;4.27;;;16.60;99.90;;;;;;5070403;28;20228;-73
2021/07/10 06:04:01;;;;;;;5.23;3.83;;;16.60;99.90;;;;;;5053697;28;20192;-72
2021/07/10 06:06:27;;;;;;;4.77;4.17;;;16.30;99.90;;;;;;5071019;28;20165;-73
2021/07/10 06:08:52;;;;;;;7.30;4.00;;;16.30;99.90;;;;;;5071402;28;20577;-73
2021/07/10 06:11:17;;;;;;;6.67;3.90;;;16.20;99.90;;;;;;5069669;28;20271;-73
2021/07/10 06:13:43;;;;;;;7.33;4.20;;;16.30;99.90;;;;;;5075802;28;20207;-73
2021/07/10 06:16:09;;;;;;;5.90;4.17;;;16.40;99.90;;;;;;5073780;28;20189;-74
2021/07/10 06:18:35;;;;;;;7.97;4.83;;;16.30;99.90;;;;;;5052742;28;20217;-72
2021/07/10 06:21:00;;;;;;;6.53;4.40;;;16.80;99.90;;;;;;5050317;28;20177;-73
2021/07/10 06:23:26;;;;;;;7.87;4.33;;;16.80;99.90;;;;;;5061097;28;20259;-73
2021/07/10 06:25:52;;;;;;;5.07;4.20;;;16.30;99.90;;;;;;5071280;28;20646;-73
2021/07/10 06:28:17;;;;;;;5.00;4.37;;;16.30;99.90;;;;;;5071036;28;20165;-73
2021/07/10 06:30:43;;;;;;;4.50;4.10;;;16.30;99.90;;;;;;5070107;28;20172;-73
2021/07/10 06:33:08;;;;;;;5.77;4.93;;;16.40;99.90;;;;;;5067596;28;20212;-73
2021/07/10 06:35:34;;;;;;;7.27;4.80;;;16.40;99.90;;;;;;5064468;22;20320;-75
2021/07/10 06:38:02;;;;;;;4.67;4.27;;;16.90;99.90;;;;;;5064738;28;20193;-74
2021/07/10 06:40:28;;;;;;;7.10;4.73;;;16.50;99.90;;;;;;5070421;28;20173;-73
2021/07/10 06:42:53;;;;;;;6.13;5.30;;;16.40;99.90;;;;;;5070486;28;20231;-74
2021/07/10 06:45:20;;;;;;;5.90;5.23;;;16.60;99.90;;;;;;5052131;28;20282;-74
2021/07/10 06:47:47;;;;;;;4.97;4.23;;;16.80;99.90;;;;;;5049517;28;20197;-74
2021/07/10 06:50:17;;;;;;;6.63;5.33;;;16.20;99.90;;;;;;5061675;28;20734;-75
2021/07/10 06:52:42;;;;;;;9.13;5.57;;;16.20;99.90;;;;;;5063679;28;20166;-75
2021/07/10 06:55:10;;;;;;;5.00;4.60;;;16.30;99.90;;;;;;5032924;28;20281;-75
2021/07/10 06:57:36;;;;;;;7.97;5.37;;;16.30;99.90;;;;;;5064857;28;20180;-75
2021/07/10 07:00:03;;;;;;;8.50;5.50;;;16.30;99.90;;;;;;5070825;28;20533;-74
2021/07/10 07:02:29;;;;;;;8.37;5.17;;;16.10;99.90;;;;;;5066408;28;20209;-74
2021/07/10 07:04:54;;;;;;;6.03;4.30;;;16.10;99.90;;;;;;5050905;28;20296;-75
2021/07/10 07:07:20;;;;;;;8.00;5.30;;;16.00;99.90;;;;;;5038904;28;20181;-75
2021/07/10 07:09:45;;;;;;;6.03;5.43;;;16.40;99.90;;;;;;5068248;28;20189;-73
2021/07/10 07:12:11;;;;;;;5.63;5.03;;;16.50;99.90;;;;;;5069505;28;20169;-75
2021/07/10 07:14:37;;;;;;;4.87;4.37;;;16.10;99.90;;;;;;5036745;28;20701;-73
2021/07/10 07:17:03;;;;;;;6.47;5.03;;;16.40;99.90;;;;;;5050431;28;20174;-73
2021/07/10 07:19:30;;;;;;;7.07;5.03;;;16.40;99.90;;;;;;5052227;28;20280;-74
2021/07/10 07:21:56;;;;;;;6.17;5.03;;;16.50;99.90;;;;;;5056860;28;20216;-74
2021/07/10 07:24:23;;;;;;;6.50;5.90;;;16.40;99.90;;;;;;5068622;28;20212;-74
2021/07/10 07:26:48;;;;;;;7.00;5.77;;;16.50;99.90;;;;;;5057452;28;20719;-74
2021/07/10 07:29:15;;;;;;;6.10;5.50;;;16.20;99.90;;;;;;5054546;28;20186;-74
2021/07/10 07:31:40;;;;;;;7.30;5.20;;;16.40;99.90;;;;;;5054526;28;20185;-75
2021/07/10 07:34:06;;;;;;;7.20;5.57;;;16.70;99.90;;;;;;5065377;28;20221;-74
2021/07/10 07:36:32;;;;;;;6.20;5.40;;;16.50;99.90;;;;;;5054813;28;20655;-74
2021/07/10 07:38:57;;;;;;;5.83;4.67;;;16.70;99.90;;;;;;5064155;28;20185;-74
2021/07/10 07:41:23;;;;;;;5.80;4.13;;;16.30;99.90;;;;;;5065009;28;20205;-74
2021/07/10 07:43:48;;;;;;;5.63;5.13;;;16.20;99.90;;;;;;5053901;28;20257;-74
2021/07/10 07:46:15;;;;;;;7.53;5.00;;;16.20;99.90;;;;;;5068371;28;20177;-74
2021/07/10 07:48:43;;;;;;;5.93;4.70;;;16.60;99.90;;;;;;5055822;28;20649;-74
2021/07/10 07:51:11;;;;;;;5.60;5.10;;;16.60;99.90;;;;;;5049342;28;20181;-75
2021/07/10 07:53:37;;;;;;;8.40;5.47;;;16.40;99.90;;;;;;5060127;28;20526;-74
2021/07/10 07:56:03;;;;;;;6.70;4.80;;;16.40;99.90;;;;;;5047662;28;20691;-74
2021/07/10 07:58:29;;;;;;;5.83;4.83;;;16.50;99.90;;;;;;5069792;28;20186;-75
2021/07/10 08:00:55;;;;;;;8.87;6.87;;;16.70;99.90;;;;;;5071041;28;20188;-74
2021/07/10 08:03:20;;;;;;;10.83;6.67;;;16.50;99.90;;;;;;5066385;28;20193;-74
2021/07/10 08:05:46;;;;;;;11.40;7.10;;;16.80;99.90;;;;;;5053028;28;20229;-73
2021/07/10 08:08:13;;;;;;;7.73;5.27;;;16.90;99.90;;;;;;5067368;28;20197;-73
2021/07/10 08:10:38;;;;;;;9.93;5.63;;;17.00;99.90;;;;;;5067795;28;20177;-73
2021/07/10 08:13:04;;;;;;;8.50;5.40;;;17.40;99.90;;;;;;5072810;28;20185;-73
2021/07/10 08:15:30;;;;;;;6.93;4.17;;;17.90;99.90;;;;;;5072370;28;20479;-75
2021/07/10 08:17:55;;;;;;;4.83;4.10;;;17.60;99.90;;;;;;5073417;28;20173;-74
2021/07/10 08:20:21;;;;;;;5.93;3.80;;;17.10;99.90;;;;;;5062117;28;20189;-75
2021/07/10 08:22:47;;;;;;;6.50;3.97;;;17.40;99.90;;;;;;5053444;28;20199;-75
2021/07/10 08:25:13;;;;;;;7.37;4.80;;;17.60;99.90;;;;;;5060641;28;20631;-75
2021/07/10 08:27:43;;;;;;;5.77;4.23;;;18.00;99.90;;;;;;5058043;28;20251;-73
2021/07/10 08:30:10;;;;;;;4.27;3.70;;;18.10;99.90;;;;;;5059606;28;20180;-73
2021/07/10 08:32:35;;;;;;;6.60;3.60;;;18.00;99.90;;;;;;5045840;28;20189;-73
2021/07/10 08:35:02;;;;;;;4.77;3.50;;;18.50;99.90;;;;;;5066843;28;20254;-74
2021/07/10 08:37:28;;;;;;;3.40;3.10;;;18.40;99.90;;;;;;5052466;28;20178;-73
2021/07/10 08:39:53;;;;;;;4.77;3.53;;;18.60;99.90;;;;;;5052184;28;20192;-73
2021/07/10 08:42:20;;;;;;;3.50;3.20;;;18.80;99.90;;;;;;5051403;28;20297;-73
2021/07/10 08:44:50;;;;;;;3.27;2.97;;;18.10;99.90;;;;;;5056718;28;20317;-74
2021/07/10 08:47:16;;;;;;;4.80;3.40;;;18.20;99.90;;;;;;5067914;28;20166;-73
2021/07/10 08:49:42;;;;;;;3.80;3.50;;;17.80;99.90;;;;;;5053644;28;20178;-73
2021/07/10 08:52:09;;;;;;;3.53;3.20;;;18.00;99.90;;;;;;5042427;28;20181;-73
2021/07/10 08:54:35;;;;;;;3.47;2.87;;;17.60;99.90;;;;;;5066693;28;20590;-73
2021/07/10 08:57:00;;;;;;;4.17;2.90;;;17.80;99.90;;;;;;5071853;28;20181;-72
2021/07/10 08:59:26;;;;;;;3.43;2.97;;;18.00;99.90;;;;;;5071900;28;20177;-74
2021/07/10 09:01:54;;;;;;;2.57;2.37;;;18.20;99.90;;;;;;5070022;28;20205;-73
2021/07/10 09:04:21;;;;;;;3.10;2.77;;;18.20;99.90;;;;;;5072242;28;20612;-74
2021/07/10 09:06:46;;;;;;;3.57;3.27;;;18.00;99.90;;;;;;5062722;28;20185;-73
2021/07/10 09:09:12;;;;;;;3.23;2.67;;;18.20;99.90;;;;;;5051779;28;20184;-73
2021/07/10 09:11:39;;;;;;;3.13;2.80;;;18.30;99.90;;;;;;5054007;28;20200;-73
2021/07/10 09:14:04;;;;;;;5.57;3.10;;;18.30;99.90;;;;;;5058138;28;20776;-72
2021/07/10 09:16:36;;;;;;;4.97;3.10;;;18.40;99.90;;;;;;5053911;28;20178;-73
2021/07/10 09:19:05;;;;;;;3.40;3.10;;;18.30;99.90;;;;;;5067686;28;20182;-73
2021/07/10 09:21:44;;;;;;;4.07;3.17;;;18.20;99.90;;;;;;5050629;28;20228;-72
2021/07/10 09:24:14;;;;;;;3.97;3.30;;;17.90;99.90;;;;;;5051563;28;20201;-72
2021/07/10 09:26:48;;;;;;;5.43;3.20;;;17.90;99.90;;;;;;5052065;28;20150;-72
2021/07/10 09:29:20;;;;;;;6.23;3.20;;;18.00;99.90;;;;;;5051447;28;20177;-72
2021/07/10 09:31:52;;;;;;;5.60;3.77;;;18.10;99.90;;;;;;5051027;28;20181;-72
2021/07/10 09:34:21;;;;;;;4.53;3.90;;;18.30;99.90;;;;;;5054829;28;20202;-72
2021/07/10 09:36:52;;;;;;;5.67;4.23;;;18.60;99.90;;;;;;5068322;28;20177;-72
2021/07/10 09:39:18;;;;;;;4.83;3.60;;;18.70;99.90;;;;;;5052004;28;20181;-72
2021/07/10 09:41:44;;;;;;;4.63;3.70;;;18.70;99.90;;;;;;5071602;28;20577;-72
2021/07/10 09:44:13;;;;;;;4.70;3.73;;;18.50;99.90;;;;;;5072349;28;20185;-72
2021/07/10 09:46:39;;;;;;;5.93;4.43;;;18.40;99.90;;;;;;5058953;28;20182;-71
2021/07/10 09:49:23;;;;;;;4.23;3.60;;;18.50;99.90;;;;;;5070188;28;20176;-71
2021/07/10 09:51:55;;;;;;;6.50;3.73;;;18.60;99.90;;;;;;5070218;28;20697;-71
2021/07/10 09:54:27;;;;;;;4.20;3.80;;;18.60;99.90;;;;;;5053192;28;20220;-72
2021/07/10 09:57:08;;;;;;;6.10;3.73;;;18.80;99.90;;;;;;5051406;28;20264;-71
2021/07/10 09:59:37;;;;;;;4.00;3.17;;;18.90;99.90;;;;;;5063981;28;20255;-71
2021/07/10 10:02:09;;;;;;;4.77;3.63;;;19.10;99.90;;;;;;5068696;28;20204;-71
2021/07/10 10:04:35;;;;;;;5.20;3.87;;;19.10;99.90;;;;;;5070281;28;20197;-71
2021/07/10 10:07:02;;;;;;;4.07;3.37;;;19.30;99.90;;;;;;5061235;28;20184;-71
2021/07/10 10:09:30;;;;;;;6.07;3.90;;;19.40;99.90;;;;;;5079252;28;20185;-71
2021/07/10 10:12:12;;;;;;;4.93;3.90;;;19.60;99.90;;;;;;5053772;28;20177;-71
2021/07/10 10:15:07;;;;;;;6.03;3.97;;;19.60;99.90;;;;;;5063557;28;20605;-72
2021/07/10 10:17:34;;;;;;;5.97;4.53;;;19.30;99.90;;;;;;5051091;28;20211;-71
2021/07/10 10:20:00;;;;;;;6.00;4.70;;;19.00;99.90;;;;;;5049636;28;20177;-74
2021/07/10 10:22:26;;;;;;;6.33;4.20;;;19.00;99.90;;;;;;5052113;28;20208;-72
2021/07/10 10:24:53;;;;;;;4.80;4.30;;;19.20;99.90;;;;;;5053047;28;20268;-75
2021/07/10 10:27:19;;;;;;;4.60;3.97;;;19.10;99.90;;;;;;5066833;28;20576;-72
2021/07/10 10:29:45;;;;;;;5.10;4.00;;;19.20;99.90;;;;;;5070352;28;20169;-70
2021/07/10 10:32:12;;;;;;;6.23;5.00;;;19.30;99.90;;;;;;5050157;28;20224;-70
2021/07/10 10:34:42;;;;;;;4.67;3.83;;;19.40;99.90;;;;;;5070458;28;20219;-70
2021/07/10 10:37:10;;;;;;;5.23;4.00;;;19.40;99.90;;;;;;5070316;28;20260;-70
2021/07/10 10:39:36;;;;;;;7.40;5.07;;;19.40;99.90;;;;;;5072366;28;20195;-70
2021/07/10 10:42:16;;;;;;;5.87;4.60;;;19.40;99.90;;;;;;5074724;28;20213;-71
2021/07/10 10:44:43;;;;;;;6.80;4.63;;;19.70;99.90;;;;;;5071145;28;20280;-71
2021/07/10 10:47:11;;;;;;;6.50;3.27;;;19.90;99.90;;;;;;5070774;28;20544;-70
2021/07/10 10:49:46;;;;;;;5.77;3.63;;;20.10;99.90;;;;;;5070761;28;20180;-71
2021/07/10 10:52:22;;;;;;;4.87;3.77;;;20.20;99.90;;;;;;5062157;28;20689;-71
2021/07/10 10:54:52;;;;;;;4.37;3.73;;;20.50;99.90;;;;;;5071754;28;20205;-70
2021/07/10 10:57:37;;;;;;;5.00;3.30;;;20.80;99.90;;;;;;5073877;28;20224;-71
2021/07/10 11:00:16;;;;;;;5.90;3.83;;;21.00;99.90;;;;;;5070640;28;20166;-70
2021/07/10 11:03:02;;;;;;;6.53;3.13;;;21.00;99.90;;;;;;5067087;28;20228;-69
2021/07/10 11:05:33;;;;;;;5.63;3.83;;;21.20;99.90;;;;;;5073580;28;20198;-70
2021/07/10 11:08:25;;;;;;;5.27;3.30;;;21.50;99.90;;;;;;5079185;28;20191;-70
2021/07/10 11:10:53;;;;;;;5.00;2.88;;;22.20;99.90;;;;;;5074518;28;20233;-70
2021/07/10 11:14:07;;;;;;;3.87;2.83;;;22.50;99.90;;;;;;5073461;28;20183;-70
2021/07/10 11:16:35;;;;;;;5.38;3.30;;;22.60;99.90;;;;;;5055153;28;20664;-70
2021/07/10 11:19:04;;;;;;;4.72;3.33;;;22.90;99.90;;;;;;5073640;28;20184;-71
2021/07/10 11:21:39;;;;;;;4.93;3.45;;;22.80;99.90;;;;;;5073149;28;20208;-70
2021/07/10 11:24:19;;;;;;;5.32;3.92;;;22.50;99.90;;;;;;5055529;28;20261;-69
2021/07/10 11:26:53;;;;;;;4.47;3.65;;;22.10;99.90;;;;;;5073635;28;20174;-71
2021/07/10 11:29:24;;;;;;;3.72;3.42;;;22.00;99.90;;;;;;5073574;28;20171;-70
2021/07/10 11:31:54;;;;;;;4.80;3.65;;;22.00;99.90;;;;;;5075458;28;20169;-70
2021/07/10 11:34:32;;;;;;;4.30;2.97;;;22.60;99.90;;;;;;5076825;28;20209;-70
2021/07/10 11:37:19;;;;;;;5.97;3.55;;;22.50;99.90;;;;;;5073362;28;20179;-70
2021/07/10 11:39:50;;;;;;;4.85;2.97;;;22.20;99.90;;;;;;5072350;28;20195;-70
2021/07/10 11:42:18;;;;;;;5.85;2.92;;;22.30;99.90;;;;;;5072174;28;20201;-70
2021/07/10 11:44:46;;;;;;;2.83;2.47;;;21.70;99.90;;;;;;5073073;28;20198;-69
2021/07/10 11:47:12;;;;;;;5.20;3.53;;;21.40;99.90;;;;;;5073124;28;20181;-70
2021/07/10 11:49:40;;;;;;;3.10;2.63;;;21.00;99.90;;;;;;5072811;28;20175;-70
2021/07/10 11:52:20;;;;;;;3.50;3.20;;;21.00;99.90;;;;;;5072254;28;20181;-70
2021/07/10 11:54:55;;;;;;;5.10;3.50;;;21.10;99.90;;;;;;5073512;28;20257;-70
2021/07/10 11:57:22;;;;;;;6.73;3.60;;;21.70;99.90;;;;;;5056495;28;20773;-70
2021/07/10 11:59:48;;;;;;;3.40;2.93;;;21.80;99.90;;;;;;5073014;28;20181;-70
2021/07/10 12:02:24;;;;;;;3.83;3.20;;;22.10;99.90;;;;;;5071910;28;20204;-70
2021/07/10 12:05:06;;;;;;;4.17;3.17;;;22.40;99.90;;;;;;5072505;28;20291;-70
2021/07/10 12:07:36;;;;;;;3.83;3.07;;;22.70;99.90;;;;;;5073068;28;20174;-70
2021/07/10 12:10:08;;;;;;;4.90;2.83;;;22.50;99.90;;;;;;5072821;28;20206;-70
2021/07/10 12:12:45;;;;;;;3.80;2.83;;;22.30;99.90;;;;;;5072176;28;20229;-70
2021/07/10 12:15:19;;;;;;;3.50;3.00;;;22.90;99.90;;;;;;5072548;28;20831;-70
2021/07/10 12:17:46;;;;;;;4.05;2.72;;;23.20;99.90;;;;;;5073249;28;20678;-70
2021/07/10 12:20:14;;;;;;;4.03;2.90;;;23.10;99.90;;;;;;5072836;28;20541;-70
2021/07/10 12:22:57;;;;;;;4.78;3.10;;;22.80;99.90;;;;;;5071744;28;20233;-70
2021/07/10 12:25:26;;;;;;;8.77;3.60;;;22.80;99.90;;;;;;5072647;28;20341;-70
2021/07/10 12:27:54;;;;;;;6.75;3.05;;;22.50;99.90;;;;;;5072851;28;20172;-70
2021/07/10 12:30:56;;;;;;;2.60;2.30;;;22.50;99.90;;;;;;5073321;28;20177;-70
2021/07/10 12:33:39;;;;;;;2.58;2.38;;;22.40;99.90;;;;;;5073440;28;20231;-70
2021/07/10 12:36:31;;;;;;;2.55;2.17;;;22.40;99.90;;;;;;5130942;22;20391;-75
2021/07/10 12:39:00;;;;;;;2.58;2.38;;;22.40;99.90;;;;;;5109367;28;20245;-76
2021/07/10 12:41:40;;;;;;;5.90;2.75;;;22.70;99.90;;;;;;5117455;28;20178;-76
2021/07/10 12:44:16;;;;;;;3.22;2.80;;;22.40;99.90;;;;;;5117935;28;20194;-76
2021/07/10 12:46:50;;;;;;;2.97;2.60;;;22.40;99.90;;;;;;5118010;28;20185;-75
2021/07/10 12:49:16;;;;;;;3.35;2.97;;;22.90;99.90;;;;;;5118476;28;20155;-75
2021/07/10 12:51:41;;;;;;;4.53;3.17;;;23.10;99.90;;;;;;5100311;28;20298;-75
2021/07/10 12:54:28;;;;;;;2.40;2.20;;;23.50;99.90;;;;;;5118416;28;20276;-75
2021/07/10 12:56:57;;;;;;;3.35;3.05;;;23.40;99.90;;;;;;5118260;28;20166;-75
2021/07/10 12:59:23;;;;;;;4.22;2.80;;;23.00;99.90;;;;;;5114314;28;20194;-76
2021/07/10 13:01:49;;;;;;;2.67;2.47;;;22.90;99.90;;;;;;5117461;28;20235;-75
2021/07/10 13:04:15;;;;;;;3.65;2.90;;;22.60;99.90;;;;;;5117808;28;20164;-77